• Join FlightAware (Why Join?)
  • Login
  • US Flag 
09:14PM EST


 

Airport Tracker/Info


-or-


 

Live Flight TrackerFlight Track Log ✈ C-GMLF ✈ 30-Jul-2014 ✈ CYRC - CYYT

Flight Track Log - Related Links

Times and Time Zones

All times are in EDT time to prevent confusion due to time zone crossing. See the C-GMLF flight status page for this flight to view local times or setup timezone preferences in your user account.

Time Position Orientation Groundspeed Altitude Reporting Facility
EDT Latitude Longitude Course Direction KTS MPH feet Rate Location/Type
07:59AM 48.5000 -70.9000 90° East 130 150 4,000  Level Montreal Center
08:00AM 48.5167 -70.8167 73° East 150 173 5,300 1,260 Climbing Montreal Center
08:01AM 48.5000 -70.7333 107° East 150 173 6,600 1,200 Climbing Montreal Center
08:02AM 48.5334 -70.3727 90° East  Level FlightAware Approximate
08:02AM 48.5000 -70.6833 90° East 160 184 7,800  Level Montreal Center
08:03AM 48.5334 -70.2594 90° East  Level FlightAware Approximate
08:03AM 48.5167 -70.6167 69° East 160 184 9,000  Level Montreal Center
08:04AM 48.5334 -70.1461 90° East  Level FlightAware Approximate
08:04AM 48.5167 -70.5333 90° East 170 196 10,200  Level Montreal Center
08:05AM 48.5167 -70.4667 90° East 170 196 11,500 1,200 Climbing Montreal Center
08:06AM 48.5000 -70.3833 107° East 180 207 12,600 1,080 Climbing Montreal Center
08:07AM 48.5167 -70.3000 73° East 180 207 13,700 1,140 Climbing Montreal Center
08:08AM 48.5167 -70.2333 90° East 180 207 14,900 1,080 Climbing Montreal Center
08:09AM 48.5333 -70.1500 73° East 190 219 15,900 1,020 Climbing Montreal Center
08:10AM 48.5167 -70.0833 111° Southeast 190 219 17,000 900 Climbing Montreal Center
08:11AM 48.5167 -70.0000 90° East 200 230 17,800 840 Climbing Montreal Center
08:12AM 48.5333 -69.9167 73° East 200 230 18,700 900 Climbing Montreal Center
08:13AM 48.5333 -69.8167 90° East 200 230 19,600 780 Climbing Montreal Center
08:14AM 48.5167 -69.7500 111° Southeast 210 242 20,300 660 Climbing Montreal Center
08:15AM 48.5333 -69.6500 76° East 210 242 21,000 660 Climbing Montreal Center
08:16AM 48.5333 -69.5667 90° East 210 242 21,700 660 Climbing Montreal Center
08:17AM 48.5333 -69.4667 90° East 210 242 22,400 600 Climbing Montreal Center
08:18AM 48.5333 -69.3833 90° East 220 253 23,000 600 Climbing Montreal Center
08:19AM 48.5500 -69.2833 76° East 220 253 23,600 600 Climbing Montreal Center
08:20AM 48.5333 -69.1833 104° East 230 265 24,200 480 Climbing Montreal Center
08:21AM 48.5333 -69.1000 90° East 230 265 24,600 360 Climbing Montreal Center
08:22AM 48.5500 -69.0000 76° East 230 265 25,000 180 Climbing Montreal Center
08:23AM 48.5333 -68.9000 104° East 240 276 25,000  Level Montreal Center
08:24AM 48.5500 -68.7833 78° East 260 299 25,000  Level Montreal Center
08:25AM 48.5333 -68.6667 102° East 270 311 25,000  Level Montreal Center
08:26AM 48.5500 -68.5500 78° East 270 311 25,000  Level Montreal Center
08:27AM 48.5500 -68.4500 90° East 270 311 25,000  Level Montreal Center
08:28AM 48.5500 -68.3167 90° East 280 322 25,000  Level Montreal Center
08:29AM 48.5500 -68.2167 90° East 280 322 25,000  Level Montreal Center
08:30AM 48.5500 -68.0833 90° East 280 322 25,000  Level Montreal Center
08:31AM 48.5667 -67.9833 76° East 280 322 25,000  Level Montreal Center
08:32AM 48.5500 -67.8500 101° East 280 322 25,000  Level Montreal Center
08:33AM 48.5500 -67.7333 90° East 280 322 25,000  Level Montreal Center
08:34AM 48.5500 -67.6333 90° East 270 311 25,000  Level Montreal Center
08:35AM 48.5500 -67.5000 90° East 280 322 25,000  Level Montreal Center
08:36AM 48.5500 -67.4000 90° East 270 311 25,000  Level Montreal Center
08:36AM 48.5500 -67.3333 90° East 280 322 25,000  Level Moncton Center
08:37AM 48.5500 -67.2333 90° East 280 322 25,000  Level Moncton Center
08:38AM 48.5500 -67.1000 90° East 270 311 25,000  Level Moncton Center
08:39AM 48.5500 -67.0000 90° East 280 322 25,000  Level Moncton Center
08:40AM 48.5500 -66.8833 90° East 280 322 25,000  Level Moncton Center
08:41AM 48.5500 -66.7500 90° East 280 322 25,000  Level Moncton Center
08:42AM 48.5500 -66.6500 90° East 270 311 25,000  Level Moncton Center
08:43AM 48.5500 -66.5167 90° East 280 322 25,000  Level Moncton Center
08:44AM 48.5500 -66.4000 90° East 280 322 25,000  Level Moncton Center
08:45AM 48.5333 -66.3000 104° East 280 322 25,000  Level Moncton Center
08:46AM 48.5333 -66.1667 90° East 280 322 25,000  Level Moncton Center
08:47AM 48.5500 -66.0333 79° East 280 322 25,000  Level Moncton Center
08:48AM 48.5500 -65.9333 90° East 280 322 25,000  Level Moncton Center
08:49AM 48.5500 -65.8167 90° East 280 322 25,000  Level Moncton Center
08:50AM 48.5333 -65.7167 104° East 280 322 25,000  Level Moncton Center
08:51AM 48.5333 -65.5833 90° East 280 322 25,000  Level Moncton Center
08:52AM 48.5333 -65.4667 90° East 280 322 25,000  Level Moncton Center
08:53AM 48.5333 -65.3333 90° East 280 322 25,000  Level Moncton Center
08:54AM 48.5333 -65.2333 90° East 280 322 25,000  Level Moncton Center
08:55AM 48.5333 -65.1000 90° East 280 322 25,000  Level Moncton Center
08:56AM 48.5167 -64.9833 102° East 290 334 25,000  Level Moncton Center
08:57AM 48.5167 -64.8833 90° East 290 334 25,000  Level Moncton Center
08:58AM 48.5167 -64.7500 90° East 290 334 25,000  Level Moncton Center
08:59AM 48.5167 -64.6167 90° East 290 334 25,000  Level Moncton Center
09:00AM 48.5167 -64.5000 90° East 290 334 25,000  Level Moncton Center
09:01AM 48.5000 -64.3667 101° East 290 334 25,000  Level Moncton Center
09:02AM 48.5000 -64.2500 90° East 290 334 25,000  Level Moncton Center
09:03AM 48.5000 -64.1167 90° East 290 334 25,000  Level Moncton Center
09:04AM 48.5000 -64.0167 90° East 290 334 25,000  Level Moncton Center
09:05AM 48.5000 -63.9000 90° East 300 345 25,000  Level Moncton Center
09:06AM 48.5000 -63.7667 90° East 300 345 25,000  Level Moncton Center
09:07AM 48.4833 -63.6333 101° East 300 345 25,000  Level Moncton Center
09:08AM 48.4833 -63.5167 90° East 300 345 25,000  Level Moncton Center
09:09AM 48.4833 -63.3833 90° East 290 334 25,000  Level Moncton Center
09:10AM 48.4833 -63.2667 90° East 300 345 25,000  Level Moncton Center
09:11AM 48.4833 -63.1333 90° East 300 345 25,000  Level Moncton Center
09:12AM 48.4667 -63.0167 102° East 290 334 25,000  Level Moncton Center
09:13AM 48.4667 -62.8833 90° East 300 345 25,000  Level Moncton Center
09:14AM 48.4667 -62.7833 90° East 290 334 25,000  Level Moncton Center
09:15AM 48.4500 -62.6500 101° East 290 334 25,000  Level Moncton Center
09:16AM 48.4500 -62.5333 90° East 290 334 25,000  Level Moncton Center
09:17AM 48.4333 -62.4000 101° East 300 345 25,000  Level Moncton Center
09:18AM 48.4333 -62.2833 90° East 280 322 25,000  Level Moncton Center
09:19AM 48.4333 -62.1500 90° East 290 334 25,000  Level Moncton Center
09:20AM 48.4333 -62.0333 90° East 290 334 25,000  Level Moncton Center
09:21AM 48.4333 -61.9000 90° East 290 334 25,000  Level Moncton Center
09:22AM 48.4000 -61.8000 117° Southeast 290 334 25,000  Level Moncton Center
09:23AM 48.4000 -61.6667 90° East 290 334 25,000  Level Moncton Center
09:24AM 48.4000 -61.5500 90° East 290 334 25,000  Level Moncton Center
09:25AM 48.4000 -61.4167 90° East 290 334 25,000  Level Moncton Center
09:26AM 48.4000 -61.3000 90° East 290 334 25,000  Level Moncton Center
09:27AM 48.3833 -61.2000 104° East 290 334 25,000  Level Moncton Center
09:28AM 48.3667 -61.0667 101° East 290 334 25,000  Level Moncton Center
09:29AM 48.3667 -60.9500 90° East 290 334 25,000  Level Moncton Center
09:30AM 48.3667 -60.8167 90° East 290 334 25,000  Level Moncton Center
09:31AM 48.3667 -60.7000 90° East 290 334 25,000  Level Moncton Center
09:32AM 48.3333 -60.6000 117° Southeast 290 334 25,000  Level Moncton Center
09:33AM 48.3333 -60.4667 90° East 280 322 25,000  Level Moncton Center
09:34AM 48.3333 -60.3333 90° East 280 322 25,000  Level Moncton Center
09:35AM 48.3333 -60.2167 90° East 290 334 25,000  Level Moncton Center
09:36AM 48.3167 -60.1167 104° East 280 322 25,000  Level Moncton Center
09:37AM 48.3167 -59.9833 90° East 290 334 25,000  Level Moncton Center
09:38AM 48.3000 -59.8667 102° East 280 322 25,000  Level Moncton Center
09:39AM 48.3000 -59.7333 90° East 290 334 25,000  Level Moncton Center
09:40AM 48.2833 -59.6333 104° East 290 334 25,000  Level Moncton Center
09:41AM 48.2833 -59.5167 90° East 280 322 25,000  Level Moncton Center
09:42AM 48.2833 -59.3833 90° East 280 322 25,000  Level Moncton Center
09:43AM 48.2500 -59.2833 117° Southeast 290 334 25,000  Level Moncton Center
09:44AM 48.2500 -59.1667 90° East 280 322 25,000  Level Moncton Center
09:45AM 48.2500 -59.0333 90° East 280 322 25,000  Level Moncton Center
09:46AM 48.2333 -58.9167 102° East 280 322 25,000  Level Moncton Center
09:47AM 48.2333 -58.8167 90° East 280 322 25,000  Level Moncton Center
09:48AM 48.2167 -58.6833 101° East 280 322 25,000  Level Moncton Center
09:49AM 48.2000 -58.5833 104° East 280 322 25,000  Level Moncton Center
09:50AM 48.2000 -58.4667 90° East 280 322 25,000  Level Moncton Center
09:51AM 48.2000 -58.3333 90° East 280 322 25,000  Level Moncton Center
09:52AM 48.1833 -58.2333 104° East 270 311 25,000  Level Moncton Center
09:53AM 48.1833 -58.1167 90° East 270 311 25,000  Level Moncton Center
09:54AM 48.1667 -58.0167 104° East 280 322 25,000  Level Moncton Center
09:55AM 48.1500 -57.9000 102° East 280 322 25,000  Level Moncton Center
09:56AM 48.1500 -57.8000 90° East 280 322 25,000  Level Moncton Center
09:57AM 48.1333 -57.6667 101° East 280 322 25,000  Level Moncton Center
09:58AM 48.1333 -57.5500 90° East 280 322 25,000  Level Moncton Center
09:59AM 48.1000 -57.4167 110° East 280 322 25,000  Level Moncton Center
10:00AM 48.1000 -57.3167 90° East 280 322 25,000  Level Moncton Center
10:01AM 48.1000 -57.2000 90° East 280 322 25,000  Level Moncton Center
10:02AM 48.0833 -57.1000 104° East 280 322 25,000  Level Moncton Center
10:03AM 48.0833 -56.9667 90° East 270 311 25,000  Level Moncton Center
10:04AM 48.0667 -56.8667 104° East 280 322 25,000  Level Moncton Center
10:05AM 48.0500 -56.7500 102° East 270 311 25,000  Level Moncton Center
10:06AM 48.0333 -56.6333 102° East 270 311 25,000  Level Moncton Center
10:07AM 48.0333 -56.5333 90° East 270 311 25,000  Level Moncton Center
10:08AM 48.0333 -56.4333 90° East 270 311 25,000  Level Moncton Center
10:09AM 48.0167 -56.3000 101° East 270 311 25,000  Level Moncton Center
10:10AM 48.0000 -56.2000 104° East 270 311 25,000  Level Moncton Center
10:11AM 47.9833 -56.0833 102° East 270 311 25,000  Level Moncton Center
10:12AM 47.9833 -55.9833 90° East 270 311 25,000  Level Moncton Center
10:13AM 47.9667 -55.8667 102° East 270 311 25,000  Level Moncton Center
10:14AM 47.9667 -55.7667 90° East 270 311 25,000  Level Moncton Center
10:15AM 47.9500 -55.6333 101° East 270 311 25,000  Level Moncton Center
10:16AM 47.9500 -55.5333 90° East 270 311 25,000  Level Moncton Center
10:17AM 47.9167 -55.4167 113° Southeast 270 311 25,000  Level Moncton Center
10:18AM 47.9167 -55.3167 90° East 270 311 25,000  Level Moncton Center
10:19AM 47.9000 -55.2000 102° East 270 311 25,000  Level Moncton Center
10:20AM 47.8833 -55.1000 104° East 270 311 25,000  Level Moncton Center
10:21AM 47.8833 -54.9667 90° East 270 311 25,000  Level Moncton Center
10:22AM 47.8500 -54.8833 121° Southeast 270 311 25,000  Level Moncton Center
10:23AM 47.8500 -54.7500 90° East 270 311 25,000  Level Moncton Center
10:24AM 47.8333 -54.6500 104° East 270 311 25,000  Level Moncton Center
10:25AM 47.8333 -54.5500 90° East 270 311 25,000  Level Moncton Center
10:26AM 47.8167 -54.4333 102° East 270 311 25,000  Level Moncton Center
10:27AM 47.8167 -54.3333 90° East 270 311 25,000  Level Moncton Center
10:28AM 47.7833 -54.2167 113° Southeast 270 311 25,000 -180 Level Moncton Center
10:29AM 47.7667 -54.1167 104° East 270 311 24,700 -1,080 Descending Moncton Center
10:30AM 47.7333 -54.0000 113° Southeast 280 322 22,900 -1,920 Descending Moncton Center
10:31AM 47.7000 -53.8833 113° Southeast 300 345 20,900 -1,980 Descending Moncton Center
10:32AM 47.6500 -53.7833 127° Southeast 290 334 19,000 -1,860 Descending Moncton Center
10:33AM 47.6167 -53.6667 113° Southeast 290 334 17,200 -1,860 Descending Moncton Center
10:34AM 47.5833 -53.5833 121° Southeast 280 322 15,300 -1,980 Descending Moncton Center
10:35AM 47.5667 -53.4667 102° East 280 322 13,300 -1,920 Descending Moncton Center
10:36AM 47.5500 -53.3667 104° East 270 311 11,500 -1,980 Descending Moncton Center
10:38AM 47.5167 -53.2333 110° East 270 311 9,100 -1,980 Descending Gander Center
10:39AM 47.5000 -53.1333 104° East 260 299 7,300 -1,860 Descending Gander Center
10:40AM 47.5000 -53.0333 90° East 250 288 5,400 -1,980 Descending Gander Center
10:41AM 47.4833 -52.9500 106° East 240 276 3,400 -1,500 Descending Gander Center
10:42AM 47.4833 -52.8667 90° East 230 265 2,400 -540 Descending Gander Center
10:43AM 47.4833 -52.7667 90° East 190 219 2,400 -240 Level Gander Center
10:44AM 47.5167 -52.7167 45° Northeast 180 207 2,000 -480 Descending Gander Center
10:45AM 47.5500 -52.6667 45° Northeast 170 196 1,500 -660 Descending Gander Center
10:46AM 47.5833 -52.6833 341° North 160 184 700 -600 Descending Gander Center
10:47AM 47.6000 -52.7000 326° Northwest 90 104 400 -300 Descending Gander Center